Time;durP1;ratioP1;P1;durP2;ratioP2;P2;SDS_P1;SDS_P2;PMS_P1;PMS_P2;Temp;Humidity;BMP_temperature;BMP_pressure;BME280_temperature;BME280_humidity;BME280_pressure;Samples;Min_cycle;Max_cycle;Signal;HPM_P1;HPM_P2
2023/04/06 00:01:47;;;;;;;18.85;7.65;;;;;;;;;;5036408;28;20017;-73
2023/04/06 00:04:12;;;;;;;15.70;7.33;;;;;;;;;;5026490;28;20037;-73
2023/04/06 00:06:37;;;;;;;19.65;8.30;;;;;;;;;;5029179;28;20268;-73
2023/04/06 00:09:02;;;;;;;18.40;8.07;;;;;;;;;;5033893;28;20470;-73
2023/04/06 00:11:27;;;;;;;18.75;8.23;;;;;;;;;;5035931;28;20355;-73
2023/04/06 00:13:52;;;;;;;19.97;8.43;;;;;;;;;;5028405;28;20079;-73
2023/04/06 00:16:18;;;;;;;23.95;8.50;;;;;;;;;;5029645;28;20331;-74
2023/04/06 00:18:43;;;;;;;18.63;8.20;;;;;;;;;;5028095;28;20071;-74
2023/04/06 00:21:11;;;;;;;18.88;8.63;;;;;;;;;;5029167;28;20075;-74
2023/04/06 00:23:36;;;;;;;14.93;8.05;;;;;;;;;;5027162;28;20010;-74
2023/04/06 00:26:01;;;;;;;21.88;8.13;;;;;;;;;;5023687;28;20021;-74
2023/04/06 00:28:26;;;;;;;17.23;8.18;;;;;;;;;;5036034;28;20026;-74
2023/04/06 00:30:52;;;;;;;20.73;8.65;;;;;;;;;;5028952;28;20069;-73
2023/04/06 00:33:18;;;;;;;21.45;8.38;;;;;;;;;;5027180;28;20502;-74
2023/04/06 00:35:43;;;;;;;20.52;8.00;;;;;;;;;;5031251;28;20166;-74
2023/04/06 00:38:08;;;;;;;17.63;7.80;;;;;;;;;;5035263;28;20454;-73
2023/04/06 00:40:34;;;;;;;21.60;8.77;;;;;;;;;;5034367;28;20314;-74
2023/04/06 00:42:59;;;;;;;17.08;7.95;;;;;;;;;;5037319;28;20264;-74
2023/04/06 00:45:25;;;;;;;17.30;7.75;;;;;;;;;;5032444;28;20089;-74
2023/04/06 00:47:50;;;;;;;16.98;8.13;;;;;;;;;;5036386;28;20022;-74
2023/04/06 00:50:16;;;;;;;14.13;8.07;;;;;;;;;;5030286;28;20048;-73
2023/04/06 00:52:41;;;;;;;20.00;8.60;;;;;;;;;;5036709;28;20112;-73
2023/04/06 00:55:07;;;;;;;17.75;8.55;;;;;;;;;;5027439;28;20104;-73
2023/04/06 00:57:32;;;;;;;20.85;8.88;;;;;;;;;;5041249;28;20028;-73
2023/04/06 00:59:57;;;;;;;17.40;8.57;;;;;;;;;;5037128;28;20053;-73
2023/04/06 01:02:23;;;;;;;19.60;8.02;;;;;;;;;;5031728;28;20268;-74
2023/04/06 01:04:48;;;;;;;22.25;8.50;;;;;;;;;;5030029;28;20090;-74
2023/04/06 01:07:13;;;;;;;18.65;9.13;;;;;;;;;;5032083;28;21756;-74
2023/04/06 01:09:41;;;;;;;26.13;10.27;;;;;;;;;;5030619;28;20101;-73
2023/04/06 01:12:06;;;;;;;18.70;8.60;;;;;;;;;;5029228;28;20601;-73
2023/04/06 01:14:32;;;;;;;15.73;7.93;;;;;;;;;;5026596;28;20107;-73
2023/04/06 01:16:58;;;;;;;20.55;8.30;;;;;;;;;;5031063;28;20275;-73
2023/04/06 01:19:23;;;;;;;17.95;7.90;;;;;;;;;;5031584;28;20174;-73
2023/04/06 01:21:50;;;;;;;19.52;8.50;;;;;;;;;;5031663;28;20096;-73
2023/04/06 01:24:15;;;;;;;14.90;7.93;;;;;;;;;;5028526;28;20018;-74
2023/04/06 01:26:40;;;;;;;21.42;8.55;;;;;;;;;;5031722;28;20036;-74
2023/04/06 01:29:05;;;;;;;20.15;8.55;;;;;;;;;;5029142;28;20151;-74
2023/04/06 01:31:31;;;;;;;20.95;8.55;;;;;;;;;;5022571;28;20028;-74
2023/04/06 01:33:56;;;;;;;19.90;9.32;;;;;;;;;;5030932;28;20032;-73
2023/04/06 01:36:21;;;;;;;21.23;8.13;;;;;;;;;;5031028;28;20106;-73
2023/04/06 01:38:47;;;;;;;16.45;8.25;;;;;;;;;;5031418;28;20059;-73
2023/04/06 01:41:12;;;;;;;19.10;8.30;;;;;;;;;;5031490;28;20018;-74
2023/04/06 01:43:37;;;;;;;18.92;7.72;;;;;;;;;;5031834;28;20087;-73
2023/04/06 01:46:03;;;;;;;18.60;7.90;;;;;;;;;;5031540;28;20022;-73
2023/04/06 01:48:28;;;;;;;23.60;8.25;;;;;;;;;;5024584;28;20026;-73
2023/04/06 01:50:54;;;;;;;25.15;8.68;;;;;;;;;;5027936;28;20026;-73
2023/04/06 01:53:19;;;;;;;18.08;7.97;;;;;;;;;;5031639;28;20060;-74
2023/04/06 01:55:44;;;;;;;21.43;8.90;;;;;;;;;;5030358;28;20529;-73
2023/04/06 01:58:10;;;;;;;18.55;9.38;;;;;;;;;;5031489;28;20272;-73
2023/04/06 02:00:35;;;;;;;19.20;8.57;;;;;;;;;;5029324;28;20475;-74
2023/04/06 02:03:00;;;;;;;18.15;8.57;;;;;;;;;;5024474;28;20044;-74
2023/04/06 02:05:25;;;;;;;26.65;8.85;;;;;;;;;;5029228;28;20017;-74
2023/04/06 02:07:51;;;;;;;16.30;8.00;;;;;;;;;;5026449;28;20049;-73
2023/04/06 02:10:16;;;;;;;20.77;9.45;;;;;;;;;;5032041;28;20577;-73
2023/04/06 02:12:42;;;;;;;19.85;8.75;;;;;;;;;;5031917;28;20017;-73
2023/04/06 02:15:07;;;;;;;22.33;9.13;;;;;;;;;;5025457;28;20061;-73
2023/04/06 02:17:32;;;;;;;19.80;8.63;;;;;;;;;;5026134;28;20264;-73
2023/04/06 02:19:58;;;;;;;14.80;8.20;;;;;;;;;;5029851;28;20394;-73
2023/04/06 02:22:23;;;;;;;18.20;8.48;;;;;;;;;;5023916;28;20029;-74
2023/04/06 02:24:48;;;;;;;18.07;8.03;;;;;;;;;;5030922;28;20025;-73
2023/04/06 02:27:14;;;;;;;20.42;8.82;;;;;;;;;;5026823;28;20311;-73
2023/04/06 02:29:39;;;;;;;19.50;9.10;;;;;;;;;;5028820;28;20178;-72
2023/04/06 02:32:04;;;;;;;27.58;8.90;;;;;;;;;;5024468;28;20022;-73
2023/04/06 02:34:30;;;;;;;26.45;8.27;;;;;;;;;;5030054;28;20025;-74
2023/04/06 02:36:55;;;;;;;17.75;8.85;;;;;;;;;;5025116;28;20478;-73
2023/04/06 02:39:20;;;;;;;18.40;8.15;;;;;;;;;;5024717;28;20056;-74
2023/04/06 02:41:45;;;;;;;24.02;8.75;;;;;;;;;;5028007;28;20021;-74
2023/04/06 02:44:10;;;;;;;26.38;9.70;;;;;;;;;;5028125;28;20068;-74
2023/04/06 02:46:36;;;;;;;21.13;8.68;;;;;;;;;;5029565;28;20190;-74
2023/04/06 02:49:01;;;;;;;22.17;8.90;;;;;;;;;;5020216;28;20072;-73
2023/04/06 02:51:26;;;;;;;22.95;8.88;;;;;;;;;;5031037;28;20064;-73
2023/04/06 02:53:52;;;;;;;17.65;8.32;;;;;;;;;;5032244;28;20025;-73
2023/04/06 02:56:18;;;;;;;17.77;9.10;;;;;;;;;;5023777;28;20070;-73
2023/04/06 02:58:44;;;;;;;23.13;9.20;;;;;;;;;;5029015;28;20119;-73
2023/04/06 03:01:09;;;;;;;24.50;8.30;;;;;;;;;;5030054;28;20021;-74
2023/04/06 03:03:34;;;;;;;18.98;8.77;;;;;;;;;;5028174;28;20045;-73
2023/04/06 03:06:00;;;;;;;20.25;8.88;;;;;;;;;;5027002;28;20025;-74
2023/04/06 03:08:25;;;;;;;19.15;9.27;;;;;;;;;;5031869;28;20040;-73
2023/04/06 03:10:50;;;;;;;19.23;9.25;;;;;;;;;;5030029;28;20625;-73
2023/04/06 03:13:15;;;;;;;20.92;9.85;;;;;;;;;;5022084;28;20021;-73
2023/04/06 03:15:41;;;;;;;21.63;8.85;;;;;;;;;;5027994;28;20394;-74
2023/04/06 03:18:06;;;;;;;42.40;14.20;;;;;;;;;;5023366;28;20029;-74
2023/04/06 03:20:31;;;;;;;27.77;12.80;;;;;;;;;;5027642;28;20275;-73
2023/04/06 03:22:56;;;;;;;21.50;9.65;;;;;;;;;;5030399;28;20158;-73
2023/04/06 03:25:21;;;;;;;22.38;10.13;;;;;;;;;;5028247;28;20030;-74
2023/04/06 03:27:46;;;;;;;27.35;11.40;;;;;;;;;;5030608;28;20017;-74
2023/04/06 03:30:12;;;;;;;19.00;9.32;;;;;;;;;;5028957;28;20028;-74
2023/04/06 03:32:37;;;;;;;25.92;9.32;;;;;;;;;;5029802;28;20500;-74
2023/04/06 03:35:02;;;;;;;25.45;10.38;;;;;;;;;;5023297;28;20021;-74
2023/04/06 03:37:28;;;;;;;24.48;8.85;;;;;;;;;;5029467;28;20028;-73
2023/04/06 03:39:53;;;;;;;17.37;8.83;;;;;;;;;;5029515;28;20018;-74
2023/04/06 03:42:18;;;;;;;25.63;8.27;;;;;;;;;;5030168;28;20291;-74
2023/04/06 03:44:43;;;;;;;17.23;9.07;;;;;;;;;;5030676;28;20275;-74
2023/04/06 03:47:08;;;;;;;25.35;8.90;;;;;;;;;;5028230;28;20264;-73
2023/04/06 03:49:33;;;;;;;20.05;8.63;;;;;;;;;;5027196;28;20064;-74
2023/04/06 03:51:58;;;;;;;22.85;8.57;;;;;;;;;;5030888;28;20394;-73
2023/04/06 03:54:24;;;;;;;22.45;8.25;;;;;;;;;;5034011;28;20059;-73
2023/04/06 03:56:49;;;;;;;23.30;7.97;;;;;;;;;;5029827;28;20025;-73
2023/04/06 03:59:14;;;;;;;20.67;8.15;;;;;;;;;;5023612;28;20518;-73
2023/04/06 04:01:40;;;;;;;16.95;7.80;;;;;;;;;;5023754;28;20018;-73
2023/04/06 04:04:05;;;;;;;24.60;9.10;;;;;;;;;;5029536;28;20026;-73
2023/04/06 04:06:30;;;;;;;22.60;8.67;;;;;;;;;;5026882;28;20026;-73
2023/04/06 04:08:55;;;;;;;22.53;8.23;;;;;;;;;;5025897;28;20280;-73
2023/04/06 04:11:21;;;;;;;20.08;8.82;;;;;;;;;;5031573;28;20264;-73
2023/04/06 04:13:46;;;;;;;21.15;8.45;;;;;;;;;;5033525;28;20096;-73
2023/04/06 04:16:11;;;;;;;20.00;8.75;;;;;;;;;;5032098;28;20478;-73
2023/04/06 04:18:36;;;;;;;26.80;10.10;;;;;;;;;;5034719;28;20228;-73
2023/04/06 04:21:01;;;;;;;17.80;9.02;;;;;;;;;;5028813;28;20315;-73
2023/04/06 04:23:27;;;;;;;27.77;9.07;;;;;;;;;;5028521;28;20025;-73
2023/04/06 04:25:52;;;;;;;20.92;9.13;;;;;;;;;;5033008;28;20026;-73
2023/04/06 04:28:17;;;;;;;17.58;8.57;;;;;;;;;;5034589;28;20057;-72
2023/04/06 04:30:42;;;;;;;22.20;7.83;;;;;;;;;;5031702;28;20032;-75
2023/04/06 04:33:07;;;;;;;23.23;8.95;;;;;;;;;;5032676;28;20676;-73
2023/04/06 04:35:32;;;;;;;22.13;9.02;;;;;;;;;;5032129;28;20101;-74
2023/04/06 04:37:58;;;;;;;20.53;9.53;;;;;;;;;;5026047;28;20500;-74
2023/04/06 04:40:23;;;;;;;22.40;9.27;;;;;;;;;;5029930;28;20306;-74
2023/04/06 04:42:48;;;;;;;26.10;8.75;;;;;;;;;;5028169;28;20204;-74
2023/04/06 04:45:14;;;;;;;18.52;8.25;;;;;;;;;;5033062;28;20053;-74
2023/04/06 04:47:39;;;;;;;17.88;8.15;;;;;;;;;;5027874;28;20018;-74
2023/04/06 04:50:05;;;;;;;21.88;9.27;;;;;;;;;;5024913;28;20091;-74
2023/04/06 04:52:30;;;;;;;31.00;8.43;;;;;;;;;;5029985;28;20017;-74
2023/04/06 04:54:55;;;;;;;19.60;8.17;;;;;;;;;;5026147;28;20033;-74
2023/04/06 04:57:20;;;;;;;18.00;8.27;;;;;;;;;;5030306;28;20283;-74
2023/04/06 04:59:45;;;;;;;24.77;8.93;;;;;;;;;;5031452;28;20060;-74
2023/04/06 05:02:11;;;;;;;22.13;9.45;;;;;;;;;;5031291;28;20021;-73
2023/04/06 05:04:36;;;;;;;17.48;8.23;;;;;;;;;;5027036;28;20221;-74
2023/04/06 05:07:02;;;;;;;18.58;8.77;;;;;;;;;;5031892;28;20370;-74
2023/04/06 05:09:28;;;;;;;19.77;7.53;;;;;;;;;;5029465;28;20068;-74
2023/04/06 05:11:54;;;;;;;25.23;8.70;;;;;;;;;;5031422;28;20032;-73
2023/04/06 05:14:19;;;;;;;15.05;7.40;;;;;;;;;;5031824;28;20029;-73
2023/04/06 05:16:45;;;;;;;21.25;8.75;;;;;;;;;;5031623;28;20013;-73
2023/04/06 05:19:11;;;;;;;17.37;7.60;;;;;;;;;;5026849;28;20474;-73
2023/04/06 05:21:36;;;;;;;18.15;8.40;;;;;;;;;;5028126;28;20645;-72
2023/04/06 05:24:02;;;;;;;17.67;8.00;;;;;;;;;;5030747;28;20029;-73
2023/04/06 05:26:27;;;;;;;20.38;7.88;;;;;;;;;;5025579;28;20330;-73
2023/04/06 05:28:52;;;;;;;22.48;9.23;;;;;;;;;;5027253;28;20487;-73
2023/04/06 05:31:18;;;;;;;18.33;7.78;;;;;;;;;;5028238;28;20040;-73
2023/04/06 05:33:43;;;;;;;20.75;8.40;;;;;;;;;;5023383;28;20024;-74
2023/04/06 05:36:08;;;;;;;15.57;8.13;;;;;;;;;;5029493;28;20030;-73
2023/04/06 05:38:33;;;;;;;22.98;8.90;;;;;;;;;;5026653;28;20017;-74
2023/04/06 05:40:58;;;;;;;19.63;8.63;;;;;;;;;;5029204;28;20013;-73
2023/04/06 05:43:24;;;;;;;17.70;7.83;;;;;;;;;;5029545;28;20088;-74
2023/04/06 05:45:49;;;;;;;17.85;9.07;;;;;;;;;;5022805;28;20386;-74
2023/04/06 05:48:14;;;;;;;17.67;7.70;;;;;;;;;;5023941;28;20410;-74
2023/04/06 05:50:39;;;;;;;21.13;7.72;;;;;;;;;;5025407;28;20475;-74
2023/04/06 05:53:05;;;;;;;22.50;8.05;;;;;;;;;;5024893;28;20017;-74
2023/04/06 05:55:30;;;;;;;20.48;8.00;;;;;;;;;;5026072;28;20025;-73
2023/04/06 05:57:55;;;;;;;15.67;7.63;;;;;;;;;;5024644;28;20029;-73
2023/04/06 06:00:20;;;;;;;19.40;7.37;;;;;;;;;;5028403;28;20295;-73
2023/04/06 06:02:45;;;;;;;23.90;7.95;;;;;;;;;;5027468;28;20264;-74
2023/04/06 06:05:10;;;;;;;12.20;6.22;;;;;;;;;;5021860;28;20021;-74
2023/04/06 06:07:36;;;;;;;16.15;6.97;;;;;;;;;;5030174;28;20026;-73
2023/04/06 06:10:01;;;;;;;14.32;6.40;;;;;;;;;;5025307;28;20013;-73
2023/04/06 06:12:27;;;;;;;16.85;7.38;;;;;;;;;;5027944;28;20036;-73
2023/04/06 06:14:52;;;;;;;19.67;8.13;;;;;;;;;;5027948;28;20018;-73
2023/04/06 06:17:17;;;;;;;16.03;6.90;;;;;;;;;;5029119;28;20018;-73
2023/04/06 06:19:42;;;;;;;19.67;7.15;;;;;;;;;;5027498;28;20764;-73
2023/04/06 06:22:07;;;;;;;14.18;6.75;;;;;;;;;;5031254;28;20016;-74
2023/04/06 06:24:33;;;;;;;12.43;6.37;;;;;;;;;;5024631;28;20370;-73
2023/04/06 06:26:58;;;;;;;12.55;6.07;;;;;;;;;;5026404;28;20288;-74
2023/04/06 06:29:24;;;;;;;15.50;7.05;;;;;;;;;;5027348;28;20029;-74
2023/04/06 06:31:49;;;;;;;15.73;6.47;;;;;;;;;;5026159;28;20022;-74
2023/04/06 06:34:14;;;;;;;13.13;6.60;;;;;;;;;;5023963;28;20025;-74
2023/04/06 06:36:39;;;;;;;12.07;6.55;;;;;;;;;;5027981;28;20021;-74
2023/04/06 06:39:05;;;;;;;20.70;6.80;;;;;;;;;;5025757;28;20036;-74
2023/04/06 06:41:30;;;;;;;9.52;4.55;;;;;;;;;;5028150;28;20076;-74
2023/04/06 06:43:55;;;;;;;13.23;5.97;;;;;;;;;;5025659;28;20045;-74
2023/04/06 06:46:20;;;;;;;13.40;6.55;;;;;;;;;;5028486;28;20279;-74
2023/04/06 06:48:46;;;;;;;15.32;6.03;;;;;;;;;;5031233;28;20040;-74
2023/04/06 06:51:11;;;;;;;13.93;5.38;;;;;;;;;;5029605;28;20018;-74
2023/04/06 06:53:36;;;;;;;6.60;3.38;;;;;;;;;;5031406;28;20029;-74
2023/04/06 06:56:02;;;;;;;12.90;5.97;;;;;;;;;;5028366;28;20027;-74
2023/04/06 06:58:27;;;;;;;9.18;5.15;;;;;;;;;;5025859;28;20471;-74
2023/04/06 07:00:56;;;;;;;10.43;4.25;;;;;;;;;;5028171;28;20060;-74
2023/04/06 07:03:22;;;;;;;10.77;5.70;;;;;;;;;;5028452;28;20497;-74
2023/04/06 07:05:52;;;;;;;6.03;3.37;;;;;;;;;;5027940;28;20030;-74
2023/04/06 07:08:17;;;;;;;13.13;7.25;;;;;;;;;;5027018;28;20279;-74
2023/04/06 07:10:43;;;;;;;13.10;6.77;;;;;;;;;;5027941;28;20116;-74
2023/04/06 07:13:08;;;;;;;17.30;6.70;;;;;;;;;;5023405;28;20269;-74
2023/04/06 07:15:33;;;;;;;21.10;6.70;;;;;;;;;;5026107;28;20280;-74
2023/04/06 07:17:59;;;;;;;13.87;4.97;;;;;;;;;;5024179;28;20497;-74
2023/04/06 07:20:24;;;;;;;12.93;5.68;;;;;;;;;;5023398;28;20268;-74
2023/04/06 07:22:50;;;;;;;14.02;6.60;;;;;;;;;;5026616;28;20037;-74
2023/04/06 07:25:15;;;;;;;11.38;6.50;;;;;;;;;;5024093;28;20018;-74
2023/04/06 07:27:40;;;;;;;11.63;5.10;;;;;;;;;;5025854;28;20040;-74
2023/04/06 07:30:06;;;;;;;22.73;5.53;;;;;;;;;;5024180;28;20022;-74
2023/04/06 07:32:31;;;;;;;12.90;6.13;;;;;;;;;;5027803;28;20220;-74
2023/04/06 07:34:57;;;;;;;13.70;5.90;;;;;;;;;;5021440;28;20033;-74
2023/04/06 07:37:23;;;;;;;13.18;5.25;;;;;;;;;;5027875;28;20091;-74
2023/04/06 07:39:48;;;;;;;9.68;4.97;;;;;;;;;;5029263;28;20470;-74
2023/04/06 07:42:13;;;;;;;14.05;5.93;;;;;;;;;;5026749;28;20462;-74
2023/04/06 07:44:38;;;;;;;12.60;6.17;;;;;;;;;;5024721;28;20478;-74
2023/04/06 07:47:04;;;;;;;13.90;5.20;;;;;;;;;;5026305;28;20295;-74
2023/04/06 07:49:29;;;;;;;9.05;4.70;;;;;;;;;;5021978;28;20284;-74
2023/04/06 07:51:54;;;;;;;11.32;6.07;;;;;;;;;;5028573;28;20162;-72
2023/04/06 07:54:20;;;;;;;14.75;6.00;;;;;;;;;;5026012;28;20037;-74
2023/04/06 07:56:45;;;;;;;5.53;2.42;;;;;;;;;;5022456;28;20029;-74
2023/04/06 07:59:11;;;;;;;13.73;6.97;;;;;;;;;;5026516;28;20377;-73
2023/04/06 08:01:36;;;;;;;21.00;6.82;;;;;;;;;;5025378;28;20052;-73
2023/04/06 08:04:02;;;;;;;17.08;7.43;;;;;;;;;;5027310;28;20025;-73
2023/04/06 08:06:27;;;;;;;12.55;7.65;;;;;;;;;;5027121;28;20103;-73
2023/04/06 08:08:52;;;;;;;17.00;7.60;;;;;;;;;;5022743;28;20025;-73
2023/04/06 08:11:17;;;;;;;12.73;6.93;;;;;;;;;;5028124;28;20033;-73
2023/04/06 08:13:43;;;;;;;15.82;6.30;;;;;;;;;;5027168;28;20035;-73
2023/04/06 08:16:08;;;;;;;15.33;7.70;;;;;;;;;;5022979;28;20037;-73
2023/04/06 08:18:33;;;;;;;18.08;6.32;;;;;;;;;;5025775;28;20287;-73
2023/04/06 08:20:58;;;;;;;17.90;7.30;;;;;;;;;;5030030;28;20020;-73
2023/04/06 08:23:23;;;;;;;13.40;7.53;;;;;;;;;;5027912;28;20276;-73
2023/04/06 08:25:49;;;;;;;10.20;4.88;;;;;;;;;;5029797;28;20021;-73
2023/04/06 08:28:14;;;;;;;12.90;6.07;;;;;;;;;;5030275;28;20028;-73
2023/04/06 08:30:40;;;;;;;10.30;4.95;;;;;;;;;;5028284;28;20029;-73
2023/04/06 08:33:05;;;;;;;10.38;4.32;;;;;;;;;;5027663;28;20022;-73
2023/04/06 08:35:31;;;;;;;17.65;5.75;;;;;;;;;;5025117;28;20359;-73
2023/04/06 08:37:56;;;;;;;13.88;6.90;;;;;;;;;;5027417;28;20030;-73
2023/04/06 08:40:21;;;;;;;9.23;4.68;;;;;;;;;;5027101;28;20150;-72
2023/04/06 08:42:52;;;;;;;13.67;7.07;;;;;;;;;;5028364;28;20474;-72
2023/04/06 08:45:17;;;;;;;11.65;6.53;;;;;;;;;;5024493;28;20279;-73
2023/04/06 08:47:43;;;;;;;19.98;9.27;;;;;;;;;;5025659;28;20022;-73
2023/04/06 08:50:08;;;;;;;16.48;7.85;;;;;;;;;;5020569;28;20057;-73
2023/04/06 08:52:33;;;;;;;13.70;6.95;;;;;;;;;;5027436;28;20382;-72
2023/04/06 08:54:59;;;;;;;15.80;7.85;;;;;;;;;;5026890;28;20096;-72
2023/04/06 08:57:25;;;;;;;16.00;7.70;;;;;;;;;;5028961;28;20493;-72
2023/04/06 08:59:50;;;;;;;9.10;4.60;;;;;;;;;;5031187;28;20076;-73
2023/04/06 09:02:18;;;;;;;15.35;7.55;;;;;;;;;;5032953;28;20018;-73
2023/04/06 09:04:44;;;;;;;18.52;8.75;;;;;;;;;;5028366;28;20029;-73
2023/04/06 09:07:09;;;;;;;17.52;8.23;;;;;;;;;;5027693;28;20033;-73
2023/04/06 09:09:34;;;;;;;17.35;7.32;;;;;;;;;;5028899;28;20075;-73
2023/04/06 09:12:05;;;;;;;19.48;7.95;;;;;;;;;;5029354;28;20033;-73
2023/04/06 09:14:37;;;;;;;20.35;6.68;;;;;;;;;;5030737;28;20370;-73
2023/04/06 09:17:02;;;;;;;13.27;6.30;;;;;;;;;;5027123;28;20013;-73
2023/04/06 09:19:27;;;;;;;15.33;8.07;;;;;;;;;;5031823;28;20022;-73
2023/04/06 09:22:07;;;;;;;17.67;8.37;;;;;;;;;;5025471;28;20299;-73
2023/04/06 09:24:41;;;;;;;14.07;5.82;;;;;;;;;;5031627;28;20486;-73
2023/04/06 09:27:06;;;;;;;16.58;7.35;;;;;;;;;;5025306;28;20029;-72
2023/04/06 09:29:31;;;;;;;19.70;9.23;;;;;;;;;;5027888;28;20021;-72
2023/04/06 09:32:07;;;;;;;20.45;9.10;;;;;;;;;;5028521;28;20287;-72
2023/04/06 09:34:33;;;;;;;22.45;9.48;;;;;;;;;;5025354;28;20029;-75
2023/04/06 09:36:58;;;;;;;18.98;6.95;;;;;;;;;;5023472;28;20010;-72
2023/04/06 09:39:24;;;;;;;20.77;10.55;;;;;;;;;;5028475;28;20356;-72
2023/04/06 09:41:53;;;;;;;21.38;9.50;;;;;;;;;;5028989;28;20402;-73
2023/04/06 09:44:20;;;;;;;17.33;6.35;;;;;;;;;;5028660;28;20112;-72
2023/04/06 09:46:45;;;;;;;12.60;5.47;;;;;;;;;;5023963;28;20032;-72
2023/04/06 09:49:11;;;;;;;22.35;9.77;;;;;;;;;;5027812;28;20021;-72
2023/04/06 09:51:38;;;;;;;20.55;9.73;;;;;;;;;;5023856;28;20431;-72
2023/04/06 09:54:04;;;;;;;15.75;7.15;;;;;;;;;;5028676;28;20028;-73
2023/04/06 09:56:45;;;;;;;12.85;5.95;;;;;;;;;;5023617;28;20434;-73
2023/04/06 09:59:13;;;;;;;24.15;10.25;;;;;;;;;;5026969;28;20091;-72
2023/04/06 10:01:39;;;;;;;17.50;6.35;;;;;;;;;;5025728;28;20497;-73
2023/04/06 10:04:11;;;;;;;16.00;6.93;;;;;;;;;;5028330;28;20029;-72
2023/04/06 10:06:37;;;;;;;18.33;8.23;;;;;;;;;;5028259;28;20052;-73
2023/04/06 10:09:03;;;;;;;21.23;9.10;;;;;;;;;;5023188;28;20014;-73
2023/04/06 10:11:29;;;;;;;19.00;6.93;;;;;;;;;;5024949;28;20026;-72
2023/04/06 10:13:55;;;;;;;23.27;8.80;;;;;;;;;;5022186;28;20359;-72
2023/04/06 10:16:21;;;;;;;21.63;8.77;;;;;;;;;;5025390;28;20220;-72
2023/04/06 10:18:48;;;;;;;20.15;8.98;;;;;;;;;;5026650;28;20034;-73
2023/04/06 10:21:15;;;;;;;25.00;10.40;;;;;;;;;;5025026;28;20022;-73
2023/04/06 10:23:48;;;;;;;21.25;9.13;;;;;;;;;;5026327;28;20021;-72
2023/04/06 10:26:17;;;;;;;18.45;6.97;;;;;;;;;;5025927;28;20091;-72
2023/04/06 10:28:43;;;;;;;18.20;6.40;;;;;;;;;;5029857;28;20540;-73
2023/04/06 10:31:08;;;;;;;23.95;10.45;;;;;;;;;;5030477;28;20025;-73
2023/04/06 10:33:34;;;;;;;29.33;10.48;;;;;;;;;;5023347;28;20021;-73
2023/04/06 10:36:12;;;;;;;23.73;10.48;;;;;;;;;;5028203;28;20017;-72
2023/04/06 10:38:38;;;;;;;27.25;10.73;;;;;;;;;;5027400;28;20523;-72
2023/04/06 10:41:04;;;;;;;24.80;9.65;;;;;;;;;;5030664;28;20018;-73
2023/04/06 10:43:32;;;;;;;30.40;11.82;;;;;;;;;;5029825;28;20013;-72
2023/04/06 10:45:59;;;;;;;22.63;10.38;;;;;;;;;;5031426;28;20029;-72
2023/04/06 10:48:25;;;;;;;24.25;8.88;;;;;;;;;;5030808;28;20025;-73
2023/04/06 10:50:51;;;;;;;24.60;10.18;;;;;;;;;;5029073;28;20025;-72
2023/04/06 10:53:23;;;;;;;27.70;11.15;;;;;;;;;;5028600;28;20074;-72
2023/04/06 10:55:49;;;;;;;19.77;7.88;;;;;;;;;;5026514;28;20100;-73
2023/04/06 10:58:14;;;;;;;25.08;9.73;;;;;;;;;;5028940;28;20562;-73
2023/04/06 11:00:46;;;;;;;29.97;11.83;;;;;;;;;;5027340;28;20026;-73
2023/04/06 11:03:12;;;;;;;22.25;10.60;;;;;;;;;;5025715;28;20351;-73
2023/04/06 11:05:37;;;;;;;21.20;7.50;;;;;;;;;;5026651;28;20491;-72
2023/04/06 11:08:02;;;;;;;21.88;6.72;;;;;;;;;;5027981;28;20032;-72
2023/04/06 11:10:27;;;;;;;20.60;7.15;;;;;;;;;;5023634;28;20037;-72
2023/04/06 11:12:53;;;;;;;24.50;10.45;;;;;;;;;;5025436;28;20034;-73
2023/04/06 11:15:18;;;;;;;24.48;11.93;;;;;;;;;;5023967;28;20037;-73
2023/04/06 11:17:45;;;;;;;18.77;7.40;;;;;;;;;;5029565;28;20021;-73
2023/04/06 11:20:11;;;;;;;29.92;11.80;;;;;;;;;;5026231;28;20276;-72
2023/04/06 11:22:36;;;;;;;24.35;8.23;;;;;;;;;;5027438;28;20420;-72
2023/04/06 11:25:05;;;;;;;24.42;10.05;;;;;;;;;;5025470;28;20490;-72
2023/04/06 11:27:31;;;;;;;23.23;10.77;;;;;;;;;;5021989;28;20097;-73
2023/04/06 11:29:57;;;;;;;25.50;11.68;;;;;;;;;;5028938;28;20017;-73
2023/04/06 11:32:23;;;;;;;21.73;8.17;;;;;;;;;;5027943;28;20053;-73
2023/04/06 11:34:48;;;;;;;23.67;10.63;;;;;;;;;;5034114;28;20795;-72
2023/04/06 11:37:14;;;;;;;23.80;11.23;;;;;;;;;;5025319;28;20026;-72
2023/04/06 11:39:40;;;;;;;20.00;8.77;;;;;;;;;;5024035;28;20288;-72
2023/04/06 11:42:06;;;;;;;22.58;11.43;;;;;;;;;;5025106;28;20024;-73
2023/04/06 11:44:31;;;;;;;26.77;10.98;;;;;;;;;;5026858;28;20377;-73
2023/04/06 11:46:57;;;;;;;21.27;8.77;;;;;;;;;;5024778;28;20037;-73
2023/04/06 11:49:26;;;;;;;21.92;9.48;;;;;;;;;;5026230;28;20056;-73
2023/04/06 11:51:51;;;;;;;22.60;8.95;;;;;;;;;;5028441;28;20363;-73
2023/04/06 11:54:16;;;;;;;25.37;10.20;;;;;;;;;;5023963;28;20029;-73
2023/04/06 11:56:42;;;;;;;24.80;10.63;;;;;;;;;;5027486;28;20276;-73
2023/04/06 11:59:07;;;;;;;26.30;10.97;;;;;;;;;;5029100;28;20058;-73
2023/04/06 12:01:32;;;;;;;24.23;11.10;;;;;;;;;;5028989;28;20010;-73
2023/04/06 12:03:58;;;;;;;23.00;10.13;;;;;;;;;;5027567;28;20264;-73
2023/04/06 12:06:23;;;;;;;19.80;9.77;;;;;;;;;;5029303;28;20036;-73
2023/04/06 12:08:48;;;;;;;20.40;9.60;;;;;;;;;;5023251;28;20022;-73
2023/04/06 12:11:13;;;;;;;23.33;10.37;;;;;;;;;;5029381;28;20264;-73
2023/04/06 12:13:39;;;;;;;25.73;10.23;;;;;;;;;;5030681;28;20779;-73
2023/04/06 12:16:05;;;;;;;25.08;10.02;;;;;;;;;;5026590;28;20320;-73
2023/04/06 12:18:31;;;;;;;19.33;8.27;;;;;;;;;;5028709;28;20028;-73
2023/04/06 12:20:56;;;;;;;13.75;5.97;;;;;;;;;;5028837;28;20017;-73
2023/04/06 12:23:22;;;;;;;21.07;7.80;;;;;;;;;;5028494;28;20414;-72
2023/04/06 12:25:47;;;;;;;24.67;9.50;;;;;;;;;;5029524;28;20047;-73
2023/04/06 12:28:12;;;;;;;17.63;8.07;;;;;;;;;;5030920;28;20291;-73
2023/04/06 12:30:37;;;;;;;20.27;9.10;;;;;;;;;;5026144;28;20033;-73
2023/04/06 12:33:02;;;;;;;22.90;10.48;;;;;;;;;;5030980;28;20271;-73
2023/04/06 12:35:28;;;;;;;23.50;8.98;;;;;;;;;;5032148;28;20030;-73
2023/04/06 12:37:53;;;;;;;27.13;10.60;;;;;;;;;;5029972;28;20467;-73
2023/04/06 12:40:18;;;;;;;22.08;8.88;;;;;;;;;;5030324;28;20311;-73
2023/04/06 12:42:45;;;;;;;21.05;9.23;;;;;;;;;;5029404;28;20021;-73
2023/04/06 12:45:11;;;;;;;23.15;9.27;;;;;;;;;;5025831;28;20036;-73
2023/04/06 12:47:36;;;;;;;24.90;10.93;;;;;;;;;;5025963;28;20026;-73
2023/04/06 12:50:01;;;;;;;18.30;8.83;;;;;;;;;;5030493;28;20021;-73
2023/04/06 12:52:27;;;;;;;16.90;7.47;;;;;;;;;;5034544;28;20729;-73
2023/04/06 12:54:52;;;;;;;18.02;6.97;;;;;;;;;;5028729;28;20514;-73
2023/04/06 12:57:17;;;;;;;18.70;7.40;;;;;;;;;;5028124;28;20032;-73
2023/04/06 12:59:44;;;;;;;14.43;7.13;;;;;;;;;;5030967;28;20020;-73
2023/04/06 13:02:09;;;;;;;18.60;7.78;;;;;;;;;;5031770;28;20803;-73
2023/04/06 13:04:34;;;;;;;18.00;8.32;;;;;;;;;;5031568;28;20105;-73
2023/04/06 13:06:59;;;;;;;15.35;7.30;;;;;;;;;;5029311;28;20362;-73
2023/04/06 13:09:25;;;;;;;16.53;8.20;;;;;;;;;;5029410;28;20013;-73
2023/04/06 13:11:50;;;;;;;18.63;8.02;;;;;;;;;;5031028;28;20264;-73
2023/04/06 13:14:15;;;;;;;21.75;8.43;;;;;;;;;;5032048;28;20424;-73
2023/04/06 13:16:41;;;;;;;20.10;9.00;;;;;;;;;;5031575;28;20048;-73
2023/04/06 13:19:06;;;;;;;19.10;8.25;;;;;;;;;;5029727;28;20052;-73
2023/04/06 13:21:31;;;;;;;18.40;10.00;;;;;;;;;;5031150;28;20155;-73
2023/04/06 13:23:57;;;;;;;17.92;8.27;;;;;;;;;;5032186;28;20526;-73
2023/04/06 13:26:22;;;;;;;18.77;8.60;;;;;;;;;;5030598;28;20052;-73
2023/04/06 13:28:47;;;;;;;20.43;8.10;;;;;;;;;;5024825;28;20478;-73
2023/04/06 13:31:12;;;;;;;15.35;7.85;;;;;;;;;;5026001;28;20280;-73
2023/04/06 13:33:39;;;;;;;30.23;9.73;;;;;;;;;;5029751;28;20470;-73
2023/04/06 13:36:05;;;;;;;16.50;8.07;;;;;;;;;;5030263;28;20470;-73
2023/04/06 13:38:31;;;;;;;15.75;7.38;;;;;;;;;;5030773;28;20018;-73
2023/04/06 13:40:56;;;;;;;11.88;6.07;;;;;;;;;;5030425;28;20009;-73
2023/04/06 13:43:22;;;;;;;13.82;7.38;;;;;;;;;;5026351;28;20026;-72
2023/04/06 13:45:51;;;;;;;9.30;4.47;;;;;;;;;;5029352;28;20020;-73
2023/04/06 13:48:16;;;;;;;15.60;5.85;;;;;;;;;;5031003;28;20148;-73
2023/04/06 13:50:41;;;;;;;10.77;5.78;;;;;;;;;;5030223;28;20120;-73
2023/04/06 13:53:06;;;;;;;7.53;3.95;;;;;;;;;;5029523;28;20048;-73
2023/04/06 13:55:32;;;;;;;16.60;8.30;;;;;;;;;;5027225;28;20021;-73
2023/04/06 13:57:57;;;;;;;13.70;6.40;;;;;;;;;;5029498;28;20378;-73
2023/04/06 14:00:23;;;;;;;13.07;7.10;;;;;;;;;;5030216;28;20021;-73
2023/04/06 14:02:48;;;;;;;14.93;7.05;;;;;;;;;;5030129;28;20363;-73
2023/04/06 14:05:14;;;;;;;5.95;3.50;;;;;;;;;;5026135;28;20699;-73
2023/04/06 14:07:40;;;;;;;8.70;4.07;;;;;;;;;;5026248;28;20025;-73
2023/04/06 14:10:06;;;;;;;18.35;7.07;;;;;;;;;;5026979;28;20496;-73
2023/04/06 14:12:31;;;;;;;11.48;5.60;;;;;;;;;;5029256;28;20026;-73
2023/04/06 14:14:56;;;;;;;13.48;4.75;;;;;;;;;;5029912;28;20044;-73
2023/04/06 14:17:21;;;;;;;11.33;5.10;;;;;;;;;;5029983;28;20071;-73
2023/04/06 14:19:47;;;;;;;9.03;4.03;;;;;;;;;;5024816;28;20757;-73